Leandra — V2EB4 — position and weather

sailwx.info

Track history (hours):
 
Tides and Currents Weather Stations Pressure Air Temp Water Temp Dewpoint Dewpoint Depression Visibility Wind Speed Wind Dir Waves Ship Positions

Leandra

Last reported at 2017-Nov-17 17:31 UTC. Time now 2017-Nov-17 17:50 UTC.
Position N 64°53' E 011°19'.

Length 146 m; draft 5.6 m.

Type: Ship. MMSI: 305375000.

Date/timePositionNaut miles runAvg speedWind from/ knotsBaromVisibWave heightAir tempDewpointWater temp
2017-Nov-17 17:31N 64°53' E 011°19'612.3
2017-Nov-17 17:00N 64°49' E 011°09'510.8
2017-Nov-17 16:30N 64°45' E 011°00'611.7
2017-Nov-17 16:01N 64°41' E 010°50'611.6
2017-Nov-17 15:30N 64°37' E 010°40'713.0
2017-Nov-17 15:00N 64°32' E 010°29'713.5
2017-Nov-17 14:30N 64°28' E 010°18'712.9
2017-Nov-17 14:00N 64°23' E 010°07'713.3
2017-Nov-17 13:30N 64°18' E 009°56'713.1
2017-Nov-17 12:59N 64°13' E 009°48'713.7
2017-Nov-17 12:30N 64°07' E 009°41'713.6
2017-Nov-17 12:00N 64°01' E 009°33'713.6
2017-Nov-17 11:29N 63°55' E 009°26'713.5
2017-Nov-17 10:59N 63°49' E 009°20'713.9
2017-Nov-17 10:30N 63°42' E 009°16'713.5
2017-Nov-17 10:00N 63°35' E 009°16'713.3
2017-Nov-17 09:30N 63°30' E 009°06'815.6
2017-Nov-17 09:00N 63°27' E 008°50'815.0
2017-Nov-17 08:30N 63°24' E 008°34'815.1
2017-Nov-17 08:00N 63°20' E 008°20'815.8
2017-Nov-17 07:30N 63°16' E 008°06'715.2
2017-Nov-17 07:00N 63°12' E 007°51'715.0
2017-Nov-17 06:31N 63°08' E 007°38'714.3
2017-Nov-17 06:00N 63°04' E 007°24'713.3
2017-Nov-17 05:30N 63°03' E 007°09'714.2
2017-Nov-17 05:00N 62°60' E 006°56'714.8
2017-Nov-17 04:30N 62°54' E 006°46'714.9
2017-Nov-17 04:00N 62°48' E 006°37'714.8
2017-Nov-17 03:30N 62°41' E 006°28'714.0
2017-Nov-17 03:00N 62°36' E 006°18'612.6
2017-Nov-17 02:30N 62°31' E 006°09'5 9.8
2017-Nov-17 02:00N 62°27' E 006°03'612.2
2017-Nov-17 01:29N 62°22' E 006°08'1013.8
2017-Nov-17 00:47N 62°14' E 005°55'513.4
2017-Nov-17 00:26N 62°12' E 005°46'613.1
2017-Nov-17 00:00N 62°11' E 005°34'611.6
2017-Nov-16 23:30N 62°11' E 005°21'612.1
2017-Nov-16 23:00N 62°13' E 005°10'511.1
2017-Nov-16 22:30N 62°09' E 005°02'611.5
2017-Nov-16 22:00N 62°04' E 005°08'612.3
2017-Nov-16 21:30N 61°58' E 005°09'510.2
2017-Nov-16 20:59N 61°53' E 005°10'3 7.1
2017-Nov-16 20:30N 61°49' E 005°12'714.4
2017-Nov-16 20:00N 61°45' E 005°00'712.8
2017-Nov-16 19:30N 61°39' E 004°59'611.3
2017-Nov-16 19:00N 61°33' E 005°00'613.3
2017-Nov-16 18:30N 61°27' E 004°59'611.9
2017-Nov-16 18:00N 61°21' E 005°02'5 9.2
2017-Nov-16 17:30N 61°17' E 004°56'510.1
2017-Nov-16 16:59N 61°12' E 005°00'612.3
2017-Nov-16 16:30N 61°06' E 005°02'612.2
2017-Nov-16 16:00N 61°02' E 004°53'612.3
2017-Nov-16 15:30N 60°57' E 004°45'612.4
2017-Nov-16 15:00N 60°51' E 004°46'612.2
2017-Nov-16 14:29N 60°45' E 004°47'612.9
2017-Nov-16 14:00N 60°39' E 004°52'713.6
2017-Nov-16 13:30N 60°32' E 004°57'713.1
2017-Nov-16 13:00N 60°26' E 005°02'611.5
2017-Nov-16 12:30N 60°22' E 005°10'611.6
2017-Nov-16 11:59N 60°16' E 005°10'612.7
2017-Nov-16 11:30N 60°10' E 005°09'5 9.1
2017-Nov-16 11:00N 60°09' E 004°60'4 8.8
2017-Nov-16 10:30N 60°07' E 004°52'4 8.9
2017-Nov-16 10:00N 60°05' E 004°44'4 8.3
2017-Nov-16 09:30N 60°03' E 004°37'47812.2
2017-Nov-14 18:25N 52°05' E 003°54'3 6.8
2017-Nov-14 17:55N 52°02' E 003°54'511.4
2017-Nov-14 17:30N 52°00' E 004°02'612.9
2017-Nov-14 17:00N 51°57' E 004°11'611.6
2017-Nov-14 16:30N 51°54' E 004°19'4 7.5
2017-Nov-14 16:00N 51°53' E 004°25'0 0.0
2017-Nov-14 15:30N 51°53' E 004°25'0 0.0
2017-Nov-14 14:57N 51°53' E 004°25'0 0.0
2017-Nov-14 14:30N 51°53' E 004°25'0 0.0
2017-Nov-14 14:00N 51°53' E 004°25'0 0.0
2017-Nov-14 13:30N 51°53' E 004°25'0 0.0
2017-Nov-14 13:00N 51°53' E 004°25'0 0.0
2017-Nov-14 12:30N 51°53' E 004°25'0 0.0
2017-Nov-14 12:00N 51°53' E 004°25'0 0.0
2017-Nov-14 11:30N 51°53' E 004°25'0 0.0
2017-Nov-14 10:57N 51°53' E 004°25'0 0.0
2017-Nov-14 10:27N 51°53' E 004°25'0 0.0
2017-Nov-14 10:00N 51°53' E 004°25'0 0.0
2017-Nov-14 09:27N 51°53' E 004°25'0 0.0
2017-Nov-14 09:00N 51°53' E 004°25'0 0.0
2017-Nov-14 08:24N 51°53' E 004°25'0 0.0
2017-Nov-14 08:00N 51°53' E 004°25'0 0.0
2017-Nov-14 07:27N 51°53' E 004°25'0 0.0
2017-Nov-14 07:00N 51°53' E 004°25'0 0.0
2017-Nov-14 06:30N 51°53' E 004°25'0 0.0
2017-Nov-14 06:00N 51°53' E 004°25'0 0.0
2017-Nov-14 05:27N 51°53' E 004°25'0 0.0
2017-Nov-14 04:57N 51°53' E 004°25'0 0.0
2017-Nov-14 04:30N 51°53' E 004°25'0 0.0
2017-Nov-14 03:57N 51°53' E 004°25'0 0.0
2017-Nov-14 03:21N 51°53' E 004°25'0 0.0
2017-Nov-14 02:57N 51°53' E 004°25'0 0.0
2017-Nov-14 02:24N 51°53' E 004°25'0 0.0
2017-Nov-14 02:00N 51°53' E 004°25'0 0.0
2017-Nov-14 01:30N 51°53' E 004°25'0 0.0
2017-Nov-14 01:00N 51°53' E 004°25'0 0.0
2017-Nov-14 00:30N 51°53' E 004°25'0 0.0
2017-Nov-13 23:51N 51°53' E 004°25'0 0.0
2017-Nov-13 23:27N 51°53' E 004°25'0 0.0
2017-Nov-13 23:00N 51°53' E 004°25'0 0.0
2017-Nov-13 22:27N 51°53' E 004°25'0 0.0
2017-Nov-13 22:00N 51°53' E 004°25'0 0.0
2017-Nov-13 01:57N 51°53' E 004°25'0 0.0
2017-Nov-13 01:30N 51°53' E 004°25'0 0.0
2017-Nov-13 01:00N 51°53' E 004°25'0 0.0
2017-Nov-13 00:27N 51°53' E 004°25'0 0.0
2017-Nov-13 00:00N 51°53' E 004°25'0 0.0
2017-Nov-12 23:30N 51°53' E 004°25'0 0.0
2017-Nov-12 23:00N 51°53' E 004°25'0 0.0
2017-Nov-12 22:30N 51°53' E 004°25'0 0.0
2017-Nov-12 21:57N 51°53' E 004°25'0 0.0
2017-Nov-12 21:30N 51°53' E 004°25'0 0.0
2017-Nov-12 21:00N 51°53' E 004°25'0 0.9
2017-Nov-12 20:30N 51°53' E 004°24'4 7.8
2017-Nov-12 20:00N 51°54' E 004°18'611.6
2017-Nov-12 19:29N 51°57' E 004°10'510.5
2017-Nov-12 19:00N 51°59' E 004°03'  
Track history (hours):
 
Tides and Currents Weather Stations Pressure Air Temp Water Temp Dewpoint Dewpoint Depression Visibility Wind Speed Wind Dir Waves Ship Positions

Leandra

Last reported at 2017-Nov-17 17:31 UTC. Time now 2017-Nov-17 17:50 UTC.
Position N 64°53' E 011°19'.

Length 146 m; draft 5.6 m.

Type: Ship. MMSI: 305375000.

Date/timePositionNaut miles runAvg speedWind from/ knotsBaromVisibWave heightAir tempDewpointWater temp
2017-Nov-17 17:31N 64°53' E 011°19'612.3
2017-Nov-17 17:00N 64°49' E 011°09'510.8
2017-Nov-17 16:30N 64°45' E 011°00'611.7
2017-Nov-17 16:01N 64°41' E 010°50'611.6
2017-Nov-17 15:30N 64°37' E 010°40'713.0
2017-Nov-17 15:00N 64°32' E 010°29'713.5
2017-Nov-17 14:30N 64°28' E 010°18'712.9
2017-Nov-17 14:00N 64°23' E 010°07'713.3
2017-Nov-17 13:30N 64°18' E 009°56'713.1
2017-Nov-17 12:59N 64°13' E 009°48'713.7
2017-Nov-17 12:30N 64°07' E 009°41'713.6
2017-Nov-17 12:00N 64°01' E 009°33'713.6
2017-Nov-17 11:29N 63°55' E 009°26'713.5
2017-Nov-17 10:59N 63°49' E 009°20'713.9
2017-Nov-17 10:30N 63°42' E 009°16'713.5
2017-Nov-17 10:00N 63°35' E 009°16'713.3
2017-Nov-17 09:30N 63°30' E 009°06'815.6
2017-Nov-17 09:00N 63°27' E 008°50'815.0
2017-Nov-17 08:30N 63°24' E 008°34'815.1
2017-Nov-17 08:00N 63°20' E 008°20'815.8
2017-Nov-17 07:30N 63°16' E 008°06'715.2
2017-Nov-17 07:00N 63°12' E 007°51'715.0
2017-Nov-17 06:31N 63°08' E 007°38'714.3
2017-Nov-17 06:00N 63°04' E 007°24'713.3
2017-Nov-17 05:30N 63°03' E 007°09'714.2
2017-Nov-17 05:00N 62°60' E 006°56'714.8
2017-Nov-17 04:30N 62°54' E 006°46'714.9
2017-Nov-17 04:00N 62°48' E 006°37'714.8
2017-Nov-17 03:30N 62°41' E 006°28'714.0
2017-Nov-17 03:00N 62°36' E 006°18'612.6
2017-Nov-17 02:30N 62°31' E 006°09'5 9.8
2017-Nov-17 02:00N 62°27' E 006°03'612.2
2017-Nov-17 01:29N 62°22' E 006°08'1013.8
2017-Nov-17 00:47N 62°14' E 005°55'513.4
2017-Nov-17 00:26N 62°12' E 005°46'613.1
2017-Nov-17 00:00N 62°11' E 005°34'611.6
2017-Nov-16 23:30N 62°11' E 005°21'612.1
2017-Nov-16 23:00N 62°13' E 005°10'511.1
2017-Nov-16 22:30N 62°09' E 005°02'611.5
2017-Nov-16 22:00N 62°04' E 005°08'612.3
2017-Nov-16 21:30N 61°58' E 005°09'510.2
2017-Nov-16 20:59N 61°53' E 005°10'3 7.1
2017-Nov-16 20:30N 61°49' E 005°12'714.4
2017-Nov-16 20:00N 61°45' E 005°00'712.8
2017-Nov-16 19:30N 61°39' E 004°59'611.3
2017-Nov-16 19:00N 61°33' E 005°00'613.3
2017-Nov-16 18:30N 61°27' E 004°59'611.9
2017-Nov-16 18:00N 61°21' E 005°02'5 9.2
2017-Nov-16 17:30N 61°17' E 004°56'510.1
2017-Nov-16 16:59N 61°12' E 005°00'612.3
2017-Nov-16 16:30N 61°06' E 005°02'612.2
2017-Nov-16 16:00N 61°02' E 004°53'612.3
2017-Nov-16 15:30N 60°57' E 004°45'612.4
2017-Nov-16 15:00N 60°51' E 004°46'612.2
2017-Nov-16 14:29N 60°45' E 004°47'612.9
2017-Nov-16 14:00N 60°39' E 004°52'713.6
2017-Nov-16 13:30N 60°32' E 004°57'713.1
2017-Nov-16 13:00N 60°26' E 005°02'611.5
2017-Nov-16 12:30N 60°22' E 005°10'611.6
2017-Nov-16 11:59N 60°16' E 005°10'612.7
2017-Nov-16 11:30N 60°10' E 005°09'5 9.1
2017-Nov-16 11:00N 60°09' E 004°60'4 8.8
2017-Nov-16 10:30N 60°07' E 004°52'4 8.9
2017-Nov-16 10:00N 60°05' E 004°44'4 8.3
2017-Nov-16 09:30N 60°03' E 004°37'47812.2
2017-Nov-14 18:25N 52°05' E 003°54'3 6.8
2017-Nov-14 17:55N 52°02' E 003°54'511.4
2017-Nov-14 17:30N 52°00' E 004°02'612.9
2017-Nov-14 17:00N 51°57' E 004°11'611.6
2017-Nov-14 16:30N 51°54' E 004°19'4 7.5
2017-Nov-14 16:00N 51°53' E 004°25'0 0.0
2017-Nov-14 15:30N 51°53' E 004°25'0 0.0
2017-Nov-14 14:57N 51°53' E 004°25'0 0.0
2017-Nov-14 14:30N 51°53' E 004°25'0 0.0
2017-Nov-14 14:00N 51°53' E 004°25'0 0.0
2017-Nov-14 13:30N 51°53' E 004°25'0 0.0
2017-Nov-14 13:00N 51°53' E 004°25'0 0.0
2017-Nov-14 12:30N 51°53' E 004°25'0 0.0
2017-Nov-14 12:00N 51°53' E 004°25'0 0.0
2017-Nov-14 11:30N 51°53' E 004°25'0 0.0
2017-Nov-14 10:57N 51°53' E 004°25'0 0.0
2017-Nov-14 10:27N 51°53' E 004°25'0 0.0
2017-Nov-14 10:00N 51°53' E 004°25'0 0.0
2017-Nov-14 09:27N 51°53' E 004°25'0 0.0
2017-Nov-14 09:00N 51°53' E 004°25'0 0.0
2017-Nov-14 08:24N 51°53' E 004°25'0 0.0
2017-Nov-14 08:00N 51°53' E 004°25'0 0.0
2017-Nov-14 07:27N 51°53' E 004°25'0 0.0
2017-Nov-14 07:00N 51°53' E 004°25'0 0.0
2017-Nov-14 06:30N 51°53' E 004°25'0 0.0
2017-Nov-14 06:00N 51°53' E 004°25'0 0.0
2017-Nov-14 05:27N 51°53' E 004°25'0 0.0
2017-Nov-14 04:57N 51°53' E 004°25'0 0.0
2017-Nov-14 04:30N 51°53' E 004°25'0 0.0
2017-Nov-14 03:57N 51°53' E 004°25'0 0.0
2017-Nov-14 03:21N 51°53' E 004°25'0 0.0
2017-Nov-14 02:57N 51°53' E 004°25'0 0.0
2017-Nov-14 02:24N 51°53' E 004°25'0 0.0
2017-Nov-14 02:00N 51°53' E 004°25'0 0.0
2017-Nov-14 01:30N 51°53' E 004°25'0 0.0
2017-Nov-14 01:00N 51°53' E 004°25'0 0.0
2017-Nov-14 00:30N 51°53' E 004°25'0 0.0
2017-Nov-13 23:51N 51°53' E 004°25'0 0.0
2017-Nov-13 23:27N 51°53' E 004°25'0 0.0
2017-Nov-13 23:00N 51°53' E 004°25'0 0.0
2017-Nov-13 22:27N 51°53' E 004°25'0 0.0
2017-Nov-13 22:00N 51°53' E 004°25'0 0.0
2017-Nov-13 01:57N 51°53' E 004°25'0 0.0
2017-Nov-13 01:30N 51°53' E 004°25'0 0.0
2017-Nov-13 01:00N 51°53' E 004°25'0 0.0
2017-Nov-13 00:27N 51°53' E 004°25'0 0.0
2017-Nov-13 00:00N 51°53' E 004°25'0 0.0
2017-Nov-12 23:30N 51°53' E 004°25'0 0.0
2017-Nov-12 23:00N 51°53' E 004°25'0 0.0
2017-Nov-12 22:30N 51°53' E 004°25'0 0.0
2017-Nov-12 21:57N 51°53' E 004°25'0 0.0
2017-Nov-12 21:30N 51°53' E 004°25'0 0.0
2017-Nov-12 21:00N 51°53' E 004°25'0 0.9
2017-Nov-12 20:30N 51°53' E 004°24'4 7.8
2017-Nov-12 20:00N 51°54' E 004°18'611.6
2017-Nov-12 19:29N 51°57' E 004°10'510.5
2017-Nov-12 19:00N 51°59' E 004°03'  

Dump ship's entire track history